Time;durP1;ratioP1;P1;durP2;ratioP2;P2;SDS_P1;SDS_P2;PMS_P1;PMS_P2;Temp;Humidity;BMP_temperature;BMP_pressure;BME280_temperature;BME280_humidity;BME280_pressure;Samples;Min_cycle;Max_cycle;Signal;HPM_P1;HPM_P2
2023/10/31 00:00:45;;;;;;;6.38;3.95;;;;;;;10.77;100.00;99383.59;4918069;29;20031;-74
2023/10/31 00:03:10;;;;;;;8.43;3.50;;;;;;;10.80;100.00;99383.00;4902503;29;20324;-74
2023/10/31 00:05:36;;;;;;;6.70;4.13;;;;;;;10.80;100.00;99377.63;4923453;29;20054;-77
2023/10/31 00:08:02;;;;;;;9.35;3.88;;;;;;;10.82;100.00;99386.16;4905361;29;20039;-75
2023/10/31 00:10:29;;;;;;;;;;;;;;;10.85;100.00;99380.19;4901879;29;20120;-75
2023/10/31 00:12:55;;;;;;;6.10;3.45;;;;;;;10.85;100.00;99380.19;4902747;29;19954;-75
2023/10/31 00:15:20;;;;;;;7.15;4.38;;;;;;;10.83;100.00;99383.16;4919959;29;20051;-77
2023/10/31 00:17:46;;;;;;;7.75;4.25;;;;;;;10.84;100.00;99381.31;4904418;29;20039;-75
2023/10/31 00:20:12;;;;;;;5.65;3.45;;;;;;;10.83;100.00;99382.38;4917082;29;20043;-76
2023/10/31 00:22:37;;;;;;;7.43;4.13;;;;;;;10.83;100.00;99374.34;4913853;29;20046;-75
2023/10/31 00:25:03;;;;;;;5.90;4.32;;;;;;;10.83;100.00;99374.34;4900097;29;20051;-75
2023/10/31 00:27:29;;;;;;;;;;;;;;;10.84;100.00;99378.63;4919371;29;20039;-75
2023/10/31 00:29:55;;;;;;;6.60;3.33;;;;;;;10.83;100.00;99379.69;4917648;29;19951;-75
2023/10/31 00:32:20;;;;;;;6.32;4.18;;;;;;;10.84;100.00;99383.97;4906147;29;20047;-79
2023/10/31 00:34:47;;;;;;;5.40;4.10;;;;;;;10.83;100.00;99383.16;4909136;29;20039;-75
2023/10/31 00:37:13;;;;;;;7.55;4.60;;;;;;;10.83;100.00;99374.34;4921209;29;20449;-74
2023/10/31 00:39:39;;;;;;;6.10;3.78;;;;;;;10.83;100.00;99372.44;4921207;29;20044;-75
2023/10/31 00:42:06;;;;;;;9.65;4.55;;;;;;;10.83;100.00;99368.97;4906078;29;20083;-75
2023/10/31 00:44:35;;;;;;;7.68;5.43;;;;;;;10.82;100.00;99372.75;4908117;29;20043;-76
2023/10/31 00:47:01;;;;;;;9.60;5.10;;;;;;;10.83;100.00;99369.78;4922480;29;20194;-74
2023/10/31 00:49:27;;;;;;;9.85;5.70;;;;;;;10.83;100.00;99374.34;4908621;29;20409;-75
2023/10/31 00:51:53;;;;;;;9.35;5.63;;;;;;;10.83;100.00;99372.44;4917602;29;20047;-75
2023/10/31 00:54:19;;;;;;;7.57;5.47;;;;;;;10.85;100.00;99358.78;4924343;29;20039;-74
2023/10/31 00:56:44;;;;;;;9.27;6.32;;;;;;;10.86;100.00;99363.03;4922760;23;20065;-76
2023/10/31 00:59:12;;;;;;;4.88;4.10;;;;;;;10.84;100.00;99352.63;4881008;29;20052;-76
2023/10/31 01:01:38;;;;;;;8.18;5.88;;;;;;;10.81;100.00;99342.50;4883612;29;20056;-74
2023/10/31 01:04:04;;;;;;;9.52;5.25;;;;;;;10.82;100.00;99343.31;4889502;29;20052;-75
2023/10/31 01:06:30;;;;;;;;;;;;;;;10.82;100.00;99345.97;4905081;29;20098;-75
2023/10/31 01:08:55;;;;;;;5.97;4.50;;;;;;;10.83;100.00;99345.66;4902910;29;19923;-74
2023/10/31 01:11:21;;;;;;;7.82;4.47;;;;;;;10.85;100.00;99348.06;4887919;29;20520;-75
2023/10/31 01:13:46;;;;;;;8.00;5.05;;;;;;;10.86;100.00;99338.94;4892512;29;20123;-75
2023/10/31 01:16:12;;;;;;;7.72;5.20;;;;;;;10.86;100.00;99341.59;4877374;29;20046;-75
2023/10/31 01:18:37;;;;;;;9.00;5.22;;;;;;;10.86;100.00;99339.72;4889107;29;20466;-75
2023/10/31 01:21:03;;;;;;;9.23;5.32;;;;;;;10.85;100.00;99340.03;4886476;29;20085;-75
2023/10/31 01:23:29;;;;;;;7.68;5.22;;;;;;;10.87;100.00;99340.50;4898648;29;20029;-75
2023/10/31 01:25:55;;;;;;;8.88;5.00;;;;;;;10.86;100.00;99334.34;4878675;29;20111;-74
2023/10/31 01:28:20;;;;;;;7.70;5.38;;;;;;;10.85;100.00;99335.47;4899685;29;20050;-74
2023/10/31 01:30:46;;;;;;;7.28;5.32;;;;;;;10.86;100.00;99331.69;4898621;29;20063;-73
2023/10/31 01:33:12;;;;;;;9.07;5.18;;;;;;;10.87;100.00;99329.78;4885684;29;20040;-75
2023/10/31 01:35:37;;;;;;;8.60;5.40;;;;;;;10.88;100.00;99331.38;4887110;29;20391;-74
2023/10/31 01:38:03;;;;;;;8.90;5.80;;;;;;;10.87;100.00;99335.16;4900683;29;20516;-74
2023/10/31 01:40:29;;;;;;;7.78;5.10;;;;;;;10.89;100.00;99322.25;4887906;29;20569;-74
2023/10/31 01:42:55;;;;;;;9.43;5.22;;;;;;;10.89;100.00;99323.03;4903137;29;20048;-75
2023/10/31 01:45:21;;;;;;;9.00;5.30;;;;;;;10.90;100.00;99334.53;4901172;29;20515;-74
2023/10/31 01:47:48;;;;;;;8.57;6.03;;;;;;;10.87;100.00;99327.13;4885176;29;20051;-74
2023/10/31 01:50:14;;;;;;;7.82;5.03;;;;;;;10.88;100.00;99320.66;4902992;29;20502;-74
2023/10/31 01:52:41;;;;;;;7.45;5.20;;;;;;;10.89;100.00;99323.03;4897452;29;20047;-74
2023/10/31 01:55:07;;;;;;;6.68;5.10;;;;;;;10.89;100.00;99316.88;4901725;29;20041;-74
2023/10/31 01:57:34;;;;;;;7.00;5.68;;;;;;;10.90;100.00;99307.75;4900916;29;20051;-74
2023/10/31 02:00:00;;;;;;;;;;;;;;;10.91;100.00;99304.00;4903238;29;20139;-74
2023/10/31 02:02:27;;;;;;;8.43;5.15;;;;;;;10.89;100.00;99301.59;4903277;29;20300;-73
2023/10/31 02:04:54;;;;;;;6.20;4.90;;;;;;;10.91;100.00;99295.97;4867131;29;20047;-73
2023/10/31 02:07:22;;;;;;;10.07;6.43;;;;;;;10.90;100.00;99299.72;4904421;29;20036;-74
2023/10/31 02:09:48;;;;;;;10.95;5.97;;;;;;;10.90;100.00;99294.34;4903869;29;20099;-75
2023/10/31 02:12:40;;;;;;;8.88;5.78;;;;;;;10.89;100.00;99282.84;4901681;29;20055;-73
2023/10/31 02:15:09;;;;;;;6.90;5.55;;;;;;;10.88;100.00;99281.28;4883373;29;20044;-74
2023/10/31 02:17:34;;;;;;;7.78;5.15;;;;;;;10.88;100.00;99275.13;4913779;29;20043;-73
2023/10/31 02:20:00;;;;;;;7.95;5.40;;;;;;;10.87;100.00;99271.66;4864076;29;20044;-73
2023/10/31 02:22:26;;;;;;;8.20;4.95;;;;;;;10.87;100.00;99270.88;4904678;29;20083;-75
2023/10/31 02:24:53;;;;;;;8.05;5.63;;;;;;;10.87;100.00;99273.56;4901306;29;20566;-74
2023/10/31 02:27:19;;;;;;;9.45;5.93;;;;;;;10.87;100.00;99266.31;4888069;29;20043;-74
2023/10/31 02:29:45;;;;;;;9.27;5.80;;;;;;;10.88;100.00;99257.16;4885027;29;20040;-74
2023/10/31 02:32:11;;;;;;;10.05;5.40;;;;;;;10.86;100.00;99248.66;4902158;29;20042;-74
2023/10/31 02:34:36;;;;;;;7.05;5.15;;;;;;;10.87;100.00;99252.13;4884483;29;20028;-74
2023/10/31 02:37:03;;;;;;;9.80;5.45;;;;;;;10.88;100.00;99251.81;4902081;29;20059;-74
2023/10/31 02:39:29;;;;;;;8.35;6.20;;;;;;;10.87;100.00;99244.09;4906579;29;20146;-74
2023/10/31 02:41:55;;;;;;;9.50;6.63;;;;;;;10.84;100.00;99244.72;4904612;29;20044;-73
2023/10/31 02:44:20;;;;;;;9.20;5.95;;;;;;;10.84;100.00;99239.38;4889432;29;20040;-74
2023/10/31 02:46:46;;;;;;;9.85;5.50;;;;;;;10.86;100.00;99237.16;4882734;29;20529;-73
2023/10/31 02:49:12;;;;;;;10.45;6.00;;;;;;;10.84;100.00;99229.44;4899818;29;20028;-76
2023/10/31 02:51:38;;;;;;;11.32;5.75;;;;;;;10.85;100.00;99233.69;4899234;29;20131;-74
2023/10/31 02:54:04;;;;;;;10.57;6.32;;;;;;;10.84;100.00;99225.97;4901072;29;20143;-74
2023/10/31 02:56:29;;;;;;;10.02;6.15;;;;;;;10.84;100.00;99225.97;4888173;29;20036;-74
2023/10/31 02:58:55;;;;;;;8.25;5.93;;;;;;;10.85;100.00;99222.97;4872162;29;20629;-73
2023/10/31 03:01:24;;;;;;;9.23;6.15;;;;;;;10.87;100.00;99225.34;4889061;29;20087;-76
2023/10/31 03:03:49;;;;;;;10.07;6.00;;;;;;;10.89;100.00;99220.47;4903484;29;20433;-74
2023/10/31 03:06:15;;;;;;;11.65;6.38;;;;;;;10.88;100.00;99218.88;4902758;29;20047;-76
2023/10/31 03:08:40;;;;;;;9.32;6.05;;;;;;;10.88;100.00;99221.56;4871587;29;20059;-74
2023/10/31 03:11:06;;;;;;;14.10;6.80;;;;;;;10.86;100.00;99216.53;4902231;29;20438;-75
2023/10/31 03:13:31;;;;;;;9.65;6.07;;;;;;;10.86;100.00;99216.53;4882406;29;20052;-75
2023/10/31 03:15:57;;;;;;;10.77;6.25;;;;;;;10.87;100.00;99220.00;4870169;29;20041;-74
2023/10/31 03:18:23;;;;;;;9.10;6.10;;;;;;;10.88;100.00;99214.31;4888309;29;20569;-76
2023/10/31 03:20:49;;;;;;;7.60;6.03;;;;;;;10.91;100.00;99219.06;4886156;29;20047;-75
2023/10/31 03:23:15;;;;;;;9.43;6.40;;;;;;;10.90;100.00;99205.97;4891214;29;20039;-74
2023/10/31 03:25:41;;;;;;;8.90;6.20;;;;;;;10.92;100.00;99198.44;4904319;29;20036;-75
2023/10/31 03:28:20;;;;;;;;;;;;;;;10.92;100.00;99201.13;4880531;29;20048;-75
2023/10/31 03:30:47;;;;;;;8.77;4.95;;;;;;;10.90;100.00;99198.72;4908017;29;19915;-74
2023/10/31 03:33:13;;;;;;;6.20;4.75;;;;;;;10.92;100.00;99203.78;4890338;29;20123;-76
2023/10/31 03:35:38;;;;;;;9.35;5.65;;;;;;;10.92;100.00;99198.44;4903023;29;20060;-73
2023/10/31 03:38:04;;;;;;;12.85;7.28;;;;;;;10.92;100.00;99188.50;4889887;29;20044;-74
2023/10/31 03:40:30;;;;;;;7.47;5.40;;;;;;;10.94;100.00;99190.88;4906134;29;20040;-74
2023/10/31 03:42:56;;;;;;;7.93;5.78;;;;;;;10.95;100.00;99192.44;4903384;29;20031;-75
2023/10/31 03:45:22;;;;;;;13.00;6.75;;;;;;;10.96;100.00;99195.91;4886272;29;20059;-73
2023/10/31 03:47:48;;;;;;;7.40;5.60;;;;;;;10.97;100.00;99189.44;4887708;29;20087;-75
2023/10/31 03:50:13;;;;;;;9.63;5.43;;;;;;;10.99;100.00;99188.06;4905845;29;20096;-74
2023/10/31 03:52:39;;;;;;;9.98;5.72;;;;;;;10.99;100.00;99182.69;4905996;29;20567;-75
2023/10/31 03:55:06;;;;;;;7.72;5.65;;;;;;;11.01;100.00;99185.84;4902114;29;20071;-74
2023/10/31 03:57:31;;;;;;;6.43;4.93;;;;;;;11.03;100.00;99189.00;4890194;29;20666;-76
2023/10/31 03:59:58;;;;;;;11.77;6.53;;;;;;;11.03;100.00;99189.00;4878396;29;20122;-76
2023/10/31 04:02:24;;;;;;;11.23;6.53;;;;;;;11.05;100.00;99181.47;4906882;29;20040;-76
2023/10/31 04:04:50;;;;;;;12.32;5.80;;;;;;;11.07;100.00;99176.59;4888168;29;20395;-76
2023/10/31 04:07:16;;;;;;;11.13;6.68;;;;;;;11.08;100.00;99178.16;4884935;29;20700;-75
2023/10/31 04:09:41;;;;;;;12.05;5.68;;;;;;;11.10;100.00;99175.94;4901902;29;20033;-75
2023/10/31 04:12:07;;;;;;;10.55;6.90;;;;;;;11.11;100.00;99174.88;4901153;29;20036;-77
2023/10/31 04:14:33;;;;;;;;;;;;;;;11.14;100.00;99168.09;4917848;29;20410;-75
2023/10/31 04:16:59;;;;;;;10.00;6.35;;;;;;;11.14;100.00;99168.09;4901204;29;19919;-76
2023/10/31 04:19:25;;;;;;;11.02;5.90;;;;;;;11.14;100.00;99166.19;4883678;29;20154;-76
2023/10/31 04:21:53;;;;;;;8.63;6.60;;;;;;;11.17;100.00;99168.25;4903906;29;20036;-76
2023/10/31 04:24:19;;;;;;;16.02;6.15;;;;;;;11.17;100.00;99173.59;4904902;29;20052;-75
2023/10/31 04:26:44;;;;;;;7.20;5.43;;;;;;;11.18;100.00;99172.53;4883697;29;20694;-75
2023/10/31 04:29:10;;;;;;;10.82;7.22;;;;;;;11.20;100.00;99172.22;4885247;29;20044;-75
2023/10/31 04:31:35;;;;;;;9.30;6.40;;;;;;;11.20;100.00;99170.31;4904680;29;20039;-76
2023/10/31 04:34:01;;;;;;;11.02;7.13;;;;;;;11.23;100.00;99170.78;4906445;29;20115;-75
2023/10/31 04:36:27;;;;;;;11.95;7.05;;;;;;;11.25;100.00;99160.56;4895230;29;20463;-76
2023/10/31 04:38:52;;;;;;;11.10;6.57;;;;;;;11.25;100.00;99171.28;4907421;29;20050;-75
2023/10/31 04:41:18;;;;;;;11.07;6.68;;;;;;;11.25;100.00;99153.31;4891210;29;20098;-76
2023/10/31 04:43:43;;;;;;;11.55;6.75;;;;;;;11.27;100.00;99166.38;4902963;29;20457;-76
2023/10/31 04:46:09;;;;;;;8.98;6.72;;;;;;;11.27;100.00;99151.09;4883891;29;20040;-76
2023/10/31 04:48:34;;;;;;;10.90;6.47;;;;;;;11.28;100.00;99152.66;4888821;29;20052;-75
2023/10/31 04:51:00;;;;;;;9.65;6.95;;;;;;;11.30;100.00;99150.47;4898779;29;20036;-75
2023/10/31 04:53:26;;;;;;;8.93;6.28;;;;;;;11.29;100.00;99148.88;4903720;29;20033;-76
2023/10/31 04:55:52;;;;;;;13.18;6.95;;;;;;;11.33;100.00;99149.06;4885853;29;20114;-76
2023/10/31 04:58:17;;;;;;;10.10;5.82;;;;;;;11.32;100.00;99136.78;4886817;29;20135;-75
2023/10/31 05:00:44;;;;;;;7.93;6.18;;;;;;;11.33;100.00;99146.38;4901565;29;20090;-75
2023/10/31 05:03:10;;;;;;;10.13;7.25;;;;;;;11.34;100.00;99147.97;4900887;29;20032;-77
2023/10/31 05:05:35;;;;;;;8.60;7.00;;;;;;;11.34;100.00;99151.44;4894271;29;20047;-76
2023/10/31 05:08:01;;;;;;;8.80;7.13;;;;;;;11.36;100.00;99148.44;4888421;29;20050;-76
2023/10/31 05:10:30;;;;;;;10.57;6.90;;;;;;;11.36;100.00;99135.03;4904120;29;20060;-75
2023/10/31 05:12:56;;;;;;;8.82;6.57;;;;;;;11.39;100.00;99137.09;4886457;29;20586;-76
2023/10/31 05:15:22;;;;;;;8.82;5.85;;;;;;;11.39;100.00;99126.38;4901164;29;20032;-77
2023/10/31 05:17:48;;;;;;;10.77;7.47;;;;;;;11.39;100.00;99134.41;4885972;29;20398;-77
2023/10/31 05:20:13;;;;;;;9.93;7.03;;;;;;;11.41;100.00;99124.16;4902121;29;20048;-76
2023/10/31 05:22:40;;;;;;;7.68;5.93;;;;;;;11.41;100.00;99134.88;4902642;29;20043;-77
2023/10/31 05:25:07;;;;;;;10.32;6.72;;;;;;;11.41;100.00;99135.66;4916522;29;20036;-75
2023/10/31 05:27:32;;;;;;;8.77;6.65;;;;;;;11.42;100.00;99142.59;4906160;29;20040;-76
2023/10/31 05:29:58;;;;;;;9.05;6.57;;;;;;;11.43;100.00;99138.03;4897545;29;20047;-76
2023/10/31 05:32:24;;;;;;;;;;;;;;;11.45;100.00;99146.56;4896847;29;20040;-75
2023/10/31 05:34:49;;;;;;;11.88;6.45;;;;;;;11.44;100.00;99139.59;4899774;29;20062;-77
2023/10/31 05:37:15;;;;;;;8.73;6.85;;;;;;;11.44;100.00;99140.38;4899687;29;20541;-76
2023/10/31 05:39:40;;;;;;;12.50;7.20;;;;;;;11.45;100.00;99130.47;4899116;29;20031;-76
2023/10/31 05:42:06;;;;;;;13.60;8.10;;;;;;;11.45;100.00;99133.16;4871230;29;20036;-75
2023/10/31 05:44:32;;;;;;;11.73;7.55;;;;;;;11.46;100.00;99134.75;4882922;29;20395;-76
2023/10/31 05:46:57;;;;;;;8.90;7.57;;;;;;;11.45;100.00;99127.81;4904745;29;20040;-78
2023/10/31 05:49:23;;;;;;;8.43;6.07;;;;;;;11.45;100.00;99131.28;4897570;29;20072;-75
2023/10/31 05:51:52;;;;;;;7.57;5.25;;;;;;;11.45;100.00;99130.47;4899215;29;20068;-75
2023/10/31 05:54:18;;;;;;;7.43;5.78;;;;;;;11.46;100.00;99132.84;4899587;29;20044;-75
2023/10/31 05:56:44;;;;;;;8.77;4.47;;;;;;;11.44;100.00;99118.94;4889508;29;20039;-76
2023/10/31 05:59:11;;;;;;;7.05;5.28;;;;;;;11.45;100.00;99125.91;4881472;29;20092;-76
2023/10/31 06:01:37;;;;;;;8.70;5.80;;;;;;;11.45;100.00;99127.81;4903811;29;20518;-76
2023/10/31 06:04:03;;;;;;;10.60;7.53;;;;;;;11.46;100.00;99124.00;4885140;29;20067;-74
2023/10/31 06:06:32;;;;;;;10.75;7.70;;;;;;;11.46;100.00;99121.34;4898049;29;20036;-74
2023/10/31 06:08:57;;;;;;;8.73;6.50;;;;;;;11.48;100.00;99129.84;4900524;29;20055;-74
2023/10/31 06:11:23;;;;;;;11.00;7.45;;;;;;;11.47;100.00;99123.69;4885667;29;20495;-73
2023/10/31 06:13:49;;;;;;;9.88;6.88;;;;;;;11.47;100.00;99128.25;4902113;29;20064;-74
2023/10/31 06:16:14;;;;;;;11.82;8.43;;;;;;;11.47;100.00;99122.91;4896027;29;20056;-74
2023/10/31 06:18:40;;;;;;;9.63;7.20;;;;;;;11.49;100.00;99131.41;4895027;29;20076;-75
2023/10/31 06:21:08;;;;;;;9.27;6.93;;;;;;;11.46;100.00;99127.47;4878107;29;20530;-75
2023/10/31 06:23:39;;;;;;;10.55;7.38;;;;;;;11.46;100.00;99132.84;4901714;29;20044;-74
2023/10/31 06:26:04;;;;;;;10.68;8.07;;;;;;;11.45;100.00;99125.91;4895333;29;20079;-74
2023/10/31 06:28:30;;;;;;;10.65;8.05;;;;;;;11.45;100.00;99131.28;4877319;29;20103;-74
2023/10/31 06:30:55;;;;;;;11.07;7.57;;;;;;;11.45;100.00;99133.16;4905049;29;20454;-74
2023/10/31 06:33:21;;;;;;;13.18;7.90;;;;;;;11.45;100.00;99127.81;4885428;29;20040;-75
2023/10/31 06:35:47;;;;;;;12.60;7.38;;;;;;;11.46;100.00;99126.69;4900616;29;20032;-75
2023/10/31 06:38:13;;;;;;;8.27;5.47;;;;;;;11.45;100.00;99127.81;4887440;29;20040;-75
2023/10/31 06:40:39;;;;;;;8.07;5.05;;;;;;;11.46;100.00;99126.69;4903249;29;20028;-75
2023/10/31 06:43:04;;;;;;;6.10;4.00;;;;;;;11.46;100.00;99129.38;4887808;29;20080;-75
2023/10/31 06:45:29;;;;;;;6.45;4.22;;;;;;;11.47;100.00;99123.69;4899378;29;20099;-75
2023/10/31 06:47:56;;;;;;;10.20;4.22;;;;;;;11.48;100.00;99130.63;4900156;29;20044;-73
2023/10/31 06:50:22;;;;;;;4.25;2.78;;;;;;;11.49;100.00;99142.13;4900166;29;20042;-73
2023/10/31 06:52:48;;;;;;;5.25;2.80;;;;;;;11.50;100.00;99133.00;4906060;29;20028;-74
2023/10/31 06:55:15;;;;;;;3.55;2.58;;;;;;;11.49;100.00;99142.94;4901493;29;20111;-77
2023/10/31 06:57:41;;;;;;;3.35;2.22;;;;;;;11.48;100.00;99143.25;5002743;23;20063;-78
2023/10/31 07:00:08;;;;;;;3.28;2.15;;;;;;;11.48;100.00;99137.88;4934053;29;20035;-76
2023/10/31 07:02:35;;;;;;;2.38;1.50;;;;;;;11.47;100.00;99147.03;4924037;29;20141;-77
2023/10/31 07:05:01;;;;;;;2.10;1.55;;;;;;;11.47;100.00;99139.78;4928606;29;20077;-74
2023/10/31 07:07:26;;;;;;;1.73;1.23;;;;;;;11.47;100.00;99155.88;4944951;29;20126;-77
2023/10/31 07:09:51;;;;;;;1.80;1.15;;;;;;;11.43;100.00;99143.38;4910470;29;20039;-78
2023/10/31 07:12:17;;;;;;;;;;;;;;;11.43;100.00;99144.19;4941438;29;20500;-76
2023/10/31 07:14:43;;;;;;;2.00;1.50;;;;;;;11.41;100.00;99156.31;4928888;29;19919;-77
2023/10/31 07:17:08;;;;;;;2.75;1.85;;;;;;;11.40;100.00;99144.81;4936348;29;20039;-75
2023/10/31 07:19:34;;;;;;;3.30;2.22;;;;;;;11.39;100.00;99145.13;4930347;29;20050;-75
2023/10/31 07:21:59;;;;;;;5.70;3.40;;;;;;;11.41;100.00;99140.25;4910401;29;20539;-76
2023/10/31 07:24:27;;;;;;;7.88;5.78;;;;;;;11.40;100.00;99144.03;4937663;29;20042;-75
2023/10/31 07:26:52;;;;;;;9.00;6.45;;;;;;;11.42;100.00;99152.53;4923425;29;20369;-77
2023/10/31 07:29:18;;;;;;;9.52;6.65;;;;;;;11.40;100.00;99144.03;4911794;29;20810;-75
2023/10/31 07:31:43;;;;;;;11.57;7.35;;;;;;;11.38;100.00;99162.28;4921553;29;20038;-74
2023/10/31 07:34:11;;;;;;;11.70;8.23;;;;;;;11.32;100.00;99167.03;4938494;29;20087;-74
2023/10/31 07:36:37;;;;;;;12.95;8.48;;;;;;;11.31;100.00;99159.28;4929006;29;20429;-75
2023/10/31 07:39:03;;;;;;;13.05;8.73;;;;;;;11.29;100.00;99153.47;4935302;29;20046;-74
2023/10/31 07:41:29;;;;;;;15.50;9.13;;;;;;;11.26;100.00;99165.59;4952944;28;20032;-75
2023/10/31 07:43:56;;;;;;;10.98;8.25;;;;;;;11.23;100.00;99173.47;4941431;29;20089;-73
2023/10/31 07:46:23;;;;;;;12.13;7.05;;;;;;;11.18;100.00;99164.47;4920058;29;20158;-74
2023/10/31 07:48:49;;;;;;;10.68;6.80;;;;;;;11.16;100.00;99161.31;4927595;29;20032;-74
2023/10/31 07:51:14;;;;;;;10.15;6.78;;;;;;;11.13;100.00;99167.31;4940454;29;20551;-76
2023/10/31 07:53:41;;;;;;;5.80;4.68;;;;;;;11.05;100.00;99165.41;4941776;29;20118;-75
2023/10/31 07:56:17;;;;;;;4.50;3.53;;;;;;;10.99;100.00;99163.94;4937918;29;20488;-74
2023/10/31 07:58:43;;;;;;;4.18;2.33;;;;;;;10.90;100.00;99163.91;4940508;29;20063;-74
2023/10/31 08:01:12;;;;;;;3.53;2.10;;;;;;;10.86;100.00;99160.28;4943959;29;20031;-74
2023/10/31 08:03:38;;;;;;;2.03;1.42;;;;;;;10.80;100.00;99166.09;4910469;29;20043;-74
2023/10/31 08:06:05;;;;;;;2.13;1.30;;;;;;;10.78;100.00;99165.59;4939548;29;20110;-74
2023/10/31 08:08:32;;;;;;;1.98;0.95;;;;;;;10.72;100.00;99167.63;4942589;29;20039;-74
2023/10/31 08:10:58;;;;;;;3.58;0.80;;;;;;;10.73;100.00;99160.38;4935976;29;20118;-74
2023/10/31 08:13:24;;;;;;;4.03;1.00;;;;;;;10.69;100.00;99162.09;4937357;29;20349;-74
2023/10/31 08:15:50;;;;;;;2.80;1.00;;;;;;;10.66;100.00;99158.94;4942902;29;20648;-75
2023/10/31 08:18:16;;;;;;;1.95;1.05;;;;;;;10.62;100.00;99157.97;4920713;29;20035;-74
2023/10/31 08:20:43;;;;;;;1.63;1.00;;;;;;;10.59;100.00;99157.81;4922779;29;20039;-74
2023/10/31 08:23:08;;;;;;;2.15;0.85;;;;;;;10.56;100.00;99159.19;4935280;29;20097;-74
2023/10/31 08:25:35;;;;;;;;;;;;;;;10.55;100.00;99167.53;4926356;29;20043;-74
2023/10/31 08:28:02;;;;;;;1.33;0.50;;;;;;;10.52;100.00;99163.59;4918879;29;19954;-74
2023/10/31 08:30:27;;;;;;;1.20;0.63;;;;;;;10.52;100.00;99152.88;4927228;29;20043;-75
2023/10/31 08:32:54;;;;;;;2.22;0.75;;;;;;;10.50;100.00;99155.09;4924758;29;20408;-74
2023/10/31 08:35:20;;;;;;;2.03;0.93;;;;;;;10.53;100.00;99151.78;4943734;29;20035;-74
2023/10/31 08:37:45;;;;;;;0.80;0.50;;;;;;;10.49;100.00;99153.50;4937260;29;20039;-73
2023/10/31 08:40:12;;;;;;;2.30;0.90;;;;;;;10.48;100.00;99151.91;4909188;29;20543;-74
2023/10/31 08:42:37;;;;;;;1.40;0.60;;;;;;;10.47;100.00;99154.91;4920287;29;20036;-74
2023/10/31 08:45:03;;;;;;;0.73;0.45;;;;;;;10.48;100.00;99145.78;4910117;29;20507;-74
2023/10/31 08:47:29;;;;;;;;;;;;;;;10.47;100.00;99150.34;4927336;29;20097;-74
2023/10/31 08:49:56;;;;;;;1.52;0.60;;;;;;;10.45;100.00;99152.53;4943522;29;20316;-74
2023/10/31 08:52:22;;;;;;;1.13;0.70;;;;;;;10.45;100.00;99155.22;4925170;29;20535;-74
2023/10/31 08:54:48;;;;;;;;;;;;;;;10.48;100.00;99156.47;4943341;29;20027;-74
2023/10/31 08:57:14;;;;;;;1.60;0.88;;;;;;;10.49;100.00;99161.53;4941868;29;19945;-75
2023/10/31 08:59:40;;;;;;;2.15;0.68;;;;;;;10.51;100.00;99162.03;4939730;29;20583;-74
2023/10/31 09:02:06;;;;;;;0.85;0.45;;;;;;;10.53;100.00;99156.34;4941375;28;20114;-73
2023/10/31 09:04:31;;;;;;;0.88;0.50;;;;;;;10.55;100.00;99152.25;4925755;29;20126;-74
2023/10/31 09:06:57;;;;;;;1.38;0.60;;;;;;;10.57;100.00;99158.13;4918157;29;20040;-75
2023/10/31 09:09:23;;;;;;;1.10;0.80;;;;;;;10.61;100.00;99163.63;4922158;29;20070;-73
2023/10/31 09:11:49;;;;;;;0.75;0.55;;;;;;;10.66;100.00;99175.00;4904725;29;20531;-72
2023/10/31 09:14:14;;;;;;;1.30;1.08;;;;;;;10.70;100.00;99182.41;4934400;28;20046;-75
2023/10/31 09:16:40;;;;;;;1.30;0.80;;;;;;;10.71;100.00;99187.47;4925653;29;20035;-73
2023/10/31 09:19:06;;;;;;;0.95;0.55;;;;;;;10.71;100.00;99190.16;4937663;29;20629;-75
2023/10/31 09:21:31;;;;;;;1.10;0.70;;;;;;;10.70;100.00;99206.50;4939677;29;20449;-73
2023/10/31 09:23:57;;;;;;;0.85;0.52;;;;;;;10.66;100.00;99215.16;4943106;29;20039;-77
2023/10/31 09:26:22;;;;;;;1.45;1.00;;;;;;;10.65;100.00;99215.47;4918053;29;20051;-75
2023/10/31 09:28:49;;;;;;;0.93;0.30;;;;;;;10.63;100.00;99213.09;4932821;29;20969;-75
2023/10/31 09:31:17;;;;;;;2.85;0.90;;;;;;;10.60;100.00;99228.97;4935405;29;20648;-75
2023/10/31 09:33:44;;;;;;;1.90;0.63;;;;;;;10.58;100.00;99233.84;4931129;29;20067;-76
2023/10/31 09:36:10;;;;;;;1.10;0.88;;;;;;;10.55;100.00;99250.50;4940350;29;20045;-77
2023/10/31 09:38:35;;;;;;;;;;;;;;;10.54;100.00;99254.28;4940224;29;20034;-74
2023/10/31 09:41:03;;;;;;;1.00;0.60;;;;;;;10.49;100.00;99271.25;4923267;29;20261;-78
2023/10/31 09:43:30;;;;;;;2.17;0.45;;;;;;;10.42;100.00;99276.25;4922213;29;20468;-77
2023/10/31 09:45:57;;;;;;;;;;;;;;;10.41;100.00;99290.72;4925718;29;20046;-78
2023/10/31 09:48:23;;;;;;;1.33;0.63;;;;;;;10.40;100.00;99299.84;4942250;29;20031;-78
2023/10/31 09:50:49;;;;;;;;;;;;;;;10.33;100.00;99320.88;4940534;29;20493;-77
2023/10/31 09:53:18;;;;;;;2.45;0.70;;;;;;;10.22;100.00;99320.28;4921421;29;19941;-78
2023/10/31 09:55:46;;;;;;;2.70;0.90;;;;;;;10.20;100.00;99351.13;4914057;29;20126;-76
2023/10/31 09:58:18;;;;;;;1.55;1.23;;;;;;;10.17;100.00;99349.84;4924141;29;20044;-75
2023/10/31 10:00:45;;;;;;;3.45;0.73;;;;;;;10.10;100.00;99379.69;4943590;29;20031;-78
2023/10/31 10:03:11;;;;;;;1.77;0.70;;;;;;;9.93;100.00;99370.66;4925445;29;20106;-75
2023/10/31 10:05:38;;;;;;;1.92;0.85;;;;;;;9.91;100.00;99384.34;4924780;29;20055;-77
2023/10/31 10:08:04;;;;;;;1.65;0.30;;;;;;;9.89;100.00;99388.38;4909041;29;20044;-77
2023/10/31 10:10:31;;;;;;;1.67;0.85;;;;;;;9.84;100.00;99410.69;4936410;29;20035;-77
2023/10/31 10:12:58;;;;;;;1.15;0.50;;;;;;;9.84;100.00;99416.03;4912997;29;20039;-76
2023/10/31 10:15:24;;;;;;;2.00;1.20;;;;;;;9.81;100.00;99420.06;4940375;29;20061;-79
2023/10/31 10:17:51;;;;;;;;;;;;;;;9.83;100.00;99446.53;4938525;29;20086;-76
2023/10/31 10:20:18;;;;;;;1.77;1.00;;;;;;;9.74;100.00;99453.63;4922114;29;20009;-76
2023/10/31 10:22:44;;;;;;;4.65;1.10;;;;;;;9.71;100.00;99467.63;4935735;29;20090;-75
2023/10/31 10:25:18;;;;;;;4.13;1.10;;;;;;;9.74;100.00;99451.75;4926357;29;20035;-76
2023/10/31 10:27:45;;;;;;;2.08;0.80;;;;;;;9.70;100.00;99464.16;4962721;28;20042;-79
2023/10/31 10:30:13;;;;;;;3.38;1.30;;;;;;;9.66;100.00;99481.06;4945853;28;20499;-77
2023/10/31 10:32:38;;;;;;;2.20;1.30;;;;;;;9.63;100.00;99495.03;4945356;29;20039;-77
2023/10/31 10:35:05;;;;;;;;;;;;;;;9.67;100.00;99512.03;4937314;29;20050;-79
2023/10/31 10:37:31;;;;;;;3.65;1.70;;;;;;;9.69;100.00;99513.34;4928185;29;19918;-75
2023/10/31 10:39:59;;;;;;;3.58;1.70;;;;;;;9.73;100.00;99506.31;4914699;29;20126;-75
2023/10/31 10:42:46;;;;;;;3.75;2.00;;;;;;;9.73;100.00;99524.25;4927220;29;20492;-77
2023/10/31 10:45:15;;;;;;;2.47;1.27;;;;;;;9.75;100.00;99530.09;4925461;29;20099;-79
2023/10/31 10:47:46;;;;;;;2.25;1.48;;;;;;;9.77;100.00;99543.97;4946441;29;20032;-78
2023/10/31 10:50:13;;;;;;;3.13;1.42;;;;;;;9.83;100.00;99548.94;4928225;29;20134;-76
2023/10/31 10:52:45;;;;;;;3.15;1.30;;;;;;;9.87;100.00;99549.13;4928038;29;20035;-78
2023/10/31 10:55:13;;;;;;;1.98;1.20;;;;;;;9.89;100.00;99555.00;4943186;29;20118;-78
2023/10/31 10:58:00;;;;;;;1.83;1.20;;;;;;;9.90;100.00;99556.59;4931750;29;20055;-79
2023/10/31 11:00:26;;;;;;;2.85;1.60;;;;;;;9.91;100.00;99579.56;4931005;29;20460;-77
2023/10/31 11:02:54;;;;;;;3.40;1.17;;;;;;;9.91;100.00;99584.13;4922110;29;20490;-73
2023/10/31 11:05:19;;;;;;;4.97;1.58;;;;;;;9.89;100.00;99581.75;4903104;29;20789;-76
2023/10/31 11:07:46;;;;;;;3.55;1.40;;;;;;;9.91;100.00;99600.97;4921040;29;20035;-76
2023/10/31 11:10:11;;;;;;;2.78;1.52;;;;;;;9.95;100.00;99604.63;4914954;29;20036;-79
2023/10/31 11:12:40;;;;;;;2.13;1.20;;;;;;;9.99;100.00;99613.66;4907666;29;20099;-77
2023/10/31 11:15:08;;;;;;;4.43;1.23;;;;;;;10.02;100.00;99605.03;4947103;29;20095;-76
2023/10/31 11:17:37;;;;;;;2.28;1.40;;;;;;;9.91;100.00;99614.31;4946112;29;20187;-77
2023/10/31 11:20:04;;;;;;;1.58;1.02;;;;;;;9.93;100.00;99617.50;4941872;29;20118;-77
2023/10/31 11:22:41;;;;;;;2.53;1.20;;;;;;;9.98;100.00;99630.00;4925399;29;20789;-76
2023/10/31 11:25:12;;;;;;;6.10;1.20;;;;;;;9.94;100.00;99632.44;4918699;29;20222;-77